sensor_id;sensor_type;location;lat;lon;timestamp;P1;durP1;ratioP1;P2;durP2;ratioP2
73382;SDS011;61600;48.126;11.542;2022-10-30T00:00:38;9.73;;;3.70;;
73382;SDS011;61600;48.126;11.542;2022-10-30T00:07:56;11.43;;;4.22;;
73382;SDS011;61600;48.126;11.542;2022-10-30T00:12:49;13.38;;;4.88;;
73382;SDS011;61600;48.126;11.542;2022-10-30T00:15:15;16.67;;;4.22;;
73382;SDS011;61600;48.126;11.542;2022-10-30T00:17:41;13.95;;;3.75;;
73382;SDS011;61600;48.126;11.542;2022-10-30T00:20:07;14.55;;;3.40;;
73382;SDS011;61600;48.126;11.542;2022-10-30T00:22:36;9.70;;;3.03;;
73382;SDS011;61600;48.126;11.542;2022-10-30T00:25:03;10.43;;;3.17;;
73382;SDS011;61600;48.126;11.542;2022-10-30T00:27:29;13.07;;;3.22;;
73382;SDS011;61600;48.126;11.542;2022-10-30T00:29:56;10.75;;;3.30;;
73382;SDS011;61600;48.126;11.542;2022-10-30T00:32:21;11.18;;;3.45;;
73382;SDS011;61600;48.126;11.542;2022-10-30T00:39:42;10.27;;;3.33;;
73382;SDS011;61600;48.126;11.542;2022-10-30T00:42:10;18.85;;;3.95;;
73382;SDS011;61600;48.126;11.542;2022-10-30T00:52:29;11.30;;;4.88;;
73382;SDS011;61600;48.126;11.542;2022-10-30T00:55:00;13.63;;;4.55;;
73382;SDS011;61600;48.126;11.542;2022-10-30T00:57:30;10.10;;;3.80;;
73382;SDS011;61600;48.126;11.542;2022-10-30T00:59:56;15.90;;;3.95;;
73382;SDS011;61600;48.126;11.542;2022-10-30T01:02:23;14.27;;;3.85;;
73382;SDS011;61600;48.126;11.542;2022-10-30T01:04:51;11.73;;;3.20;;
73382;SDS011;61600;48.126;11.542;2022-10-30T01:07:19;14.35;;;3.17;;
73382;SDS011;61600;48.126;11.542;2022-10-30T01:09:48;9.82;;;3.25;;
73382;SDS011;61600;48.126;11.542;2022-10-30T01:12:14;10.10;;;3.22;;
73382;SDS011;61600;48.126;11.542;2022-10-30T01:14:42;15.45;;;3.75;;
73382;SDS011;61600;48.126;11.542;2022-10-30T01:36:44;10.93;;;4.45;;
73382;SDS011;61600;48.126;11.542;2022-10-30T01:39:26;10.77;;;3.15;;
73382;SDS011;61600;48.126;11.542;2022-10-30T01:44:23;13.73;;;3.38;;
73382;SDS011;61600;48.126;11.542;2022-10-30T01:47:11;7.55;;;3.17;;
73382;SDS011;61600;48.126;11.542;2022-10-30T01:56:13;11.00;;;3.28;;
73382;SDS011;61600;48.126;11.542;2022-10-30T02:01:30;11.75;;;3.70;;
73382;SDS011;61600;48.126;11.542;2022-10-30T02:03:59;11.40;;;3.95;;
73382;SDS011;61600;48.126;11.542;2022-10-30T02:06:25;11.55;;;3.70;;
73382;SDS011;61600;48.126;11.542;2022-10-30T02:08:53;15.30;;;3.80;;
73382;SDS011;61600;48.126;11.542;2022-10-30T02:11:20;10.65;;;4.20;;
73382;SDS011;61600;48.126;11.542;2022-10-30T02:13:48;11.85;;;4.10;;
73382;SDS011;61600;48.126;11.542;2022-10-30T02:16:15;13.98;;;3.47;;
73382;SDS011;61600;48.126;11.542;2022-10-30T02:18:40;11.07;;;4.13;;
73382;SDS011;61600;48.126;11.542;2022-10-30T02:21:07;11.07;;;4.55;;
73382;SDS011;61600;48.126;11.542;2022-10-30T02:23:33;14.40;;;5.43;;
73382;SDS011;61600;48.126;11.542;2022-10-30T02:25:59;9.95;;;3.63;;
73382;SDS011;61600;48.126;11.542;2022-10-30T02:28:25;11.10;;;4.10;;
73382;SDS011;61600;48.126;11.542;2022-10-30T02:30:51;9.75;;;3.88;;
73382;SDS011;61600;48.126;11.542;2022-10-30T02:33:16;9.07;;;3.47;;
73382;SDS011;61600;48.126;11.542;2022-10-30T02:35:42;10.57;;;3.40;;
73382;SDS011;61600;48.126;11.542;2022-10-30T02:38:08;11.73;;;4.68;;
73382;SDS011;61600;48.126;11.542;2022-10-30T02:40:33;13.23;;;3.53;;
73382;SDS011;61600;48.126;11.542;2022-10-30T02:42:59;13.50;;;4.75;;
73382;SDS011;61600;48.126;11.542;2022-10-30T02:45:25;12.82;;;5.90;;
73382;SDS011;61600;48.126;11.542;2022-10-30T02:47:51;12.77;;;4.05;;
73382;SDS011;61600;48.126;11.542;2022-10-30T02:50:17;13.25;;;4.10;;
73382;SDS011;61600;48.126;11.542;2022-10-30T02:52:42;23.17;;;3.95;;
73382;SDS011;61600;48.126;11.542;2022-10-30T02:55:08;9.93;;;4.07;;
73382;SDS011;61600;48.126;11.542;2022-10-30T02:57:34;12.23;;;4.18;;
73382;SDS011;61600;48.126;11.542;2022-10-30T03:00:00;12.82;;;4.38;;
73382;SDS011;61600;48.126;11.542;2022-10-30T03:02:26;12.40;;;3.88;;
73382;SDS011;61600;48.126;11.542;2022-10-30T03:04:51;14.07;;;4.43;;
73382;SDS011;61600;48.126;11.542;2022-10-30T03:07:17;11.57;;;4.25;;
73382;SDS011;61600;48.126;11.542;2022-10-30T03:09:43;16.52;;;4.25;;
73382;SDS011;61600;48.126;11.542;2022-10-30T03:12:08;12.80;;;3.53;;
73382;SDS011;61600;48.126;11.542;2022-10-30T03:14:34;15.20;;;4.07;;
73382;SDS011;61600;48.126;11.542;2022-10-30T03:16:59;11.63;;;3.70;;
73382;SDS011;61600;48.126;11.542;2022-10-30T03:19:25;10.40;;;3.90;;
73382;SDS011;61600;48.126;11.542;2022-10-30T03:21:52;9.05;;;3.78;;
73382;SDS011;61600;48.126;11.542;2022-10-30T03:24:18;15.65;;;4.25;;
73382;SDS011;61600;48.126;11.542;2022-10-30T03:26:43;9.05;;;4.15;;
73382;SDS011;61600;48.126;11.542;2022-10-30T03:29:09;11.52;;;4.13;;
73382;SDS011;61600;48.126;11.542;2022-10-30T03:31:35;11.32;;;3.97;;
73382;SDS011;61600;48.126;11.542;2022-10-30T03:34:00;9.57;;;3.92;;
73382;SDS011;61600;48.126;11.542;2022-10-30T03:36:26;10.15;;;4.00;;
73382;SDS011;61600;48.126;11.542;2022-10-30T03:38:52;15.80;;;3.88;;
73382;SDS011;61600;48.126;11.542;2022-10-30T03:41:18;11.13;;;3.83;;
73382;SDS011;61600;48.126;11.542;2022-10-30T03:43:44;12.02;;;4.38;;
73382;SDS011;61600;48.126;11.542;2022-10-30T03:46:10;8.57;;;3.22;;
73382;SDS011;61600;48.126;11.542;2022-10-30T03:48:35;12.25;;;4.40;;
73382;SDS011;61600;48.126;11.542;2022-10-30T03:51:01;11.90;;;3.60;;
73382;SDS011;61600;48.126;11.542;2022-10-30T03:53:28;9.50;;;4.00;;
73382;SDS011;61600;48.126;11.542;2022-10-30T03:56:01;10.95;;;3.50;;
73382;SDS011;61600;48.126;11.542;2022-10-30T03:58:28;13.15;;;4.50;;
73382;SDS011;61600;48.126;11.542;2022-10-30T04:00:58;14.70;;;4.13;;
73382;SDS011;61600;48.126;11.542;2022-10-30T04:03:26;12.38;;;3.83;;
73382;SDS011;61600;48.126;11.542;2022-10-30T04:05:52;9.23;;;3.38;;
73382;SDS011;61600;48.126;11.542;2022-10-30T04:08:18;12.45;;;3.85;;
73382;SDS011;61600;48.126;11.542;2022-10-30T04:10:44;10.93;;;3.45;;
73382;SDS011;61600;48.126;11.542;2022-10-30T04:13:12;7.68;;;3.30;;
73382;SDS011;61600;48.126;11.542;2022-10-30T04:15:39;10.65;;;3.17;;
73382;SDS011;61600;48.126;11.542;2022-10-30T04:18:05;11.65;;;2.92;;
73382;SDS011;61600;48.126;11.542;2022-10-30T04:20:31;11.40;;;3.05;;
73382;SDS011;61600;48.126;11.542;2022-10-30T04:22:59;9.05;;;3.05;;
73382;SDS011;61600;48.126;11.542;2022-10-30T04:25:29;10.05;;;3.58;;
73382;SDS011;61600;48.126;11.542;2022-10-30T04:27:55;11.40;;;3.40;;
73382;SDS011;61600;48.126;11.542;2022-10-30T04:30:21;10.60;;;3.60;;
73382;SDS011;61600;48.126;11.542;2022-10-30T04:33:12;11.30;;;3.20;;
73382;SDS011;61600;48.126;11.542;2022-10-30T04:35:39;10.50;;;3.35;;
73382;SDS011;61600;48.126;11.542;2022-10-30T04:40:36;12.73;;;3.03;;
73382;SDS011;61600;48.126;11.542;2022-10-30T04:43:03;12.20;;;3.30;;
73382;SDS011;61600;48.126;11.542;2022-10-30T04:45:30;9.45;;;2.90;;
73382;SDS011;61600;48.126;11.542;2022-10-30T04:48:00;6.10;;;3.03;;
73382;SDS011;61600;48.126;11.542;2022-10-30T04:50:30;15.13;;;3.60;;
73382;SDS011;61600;48.126;11.542;2022-10-30T04:53:09;8.23;;;3.13;;
73382;SDS011;61600;48.126;11.542;2022-10-30T04:55:41;11.20;;;2.75;;
73382;SDS011;61600;48.126;11.542;2022-10-30T04:58:07;10.73;;;2.97;;
73382;SDS011;61600;48.126;11.542;2022-10-30T05:00:33;6.60;;;3.38;;
73382;SDS011;61600;48.126;11.542;2022-10-30T05:02:59;12.07;;;3.38;;
73382;SDS011;61600;48.126;11.542;2022-10-30T05:05:27;8.63;;;3.47;;
73382;SDS011;61600;48.126;11.542;2022-10-30T05:07:54;10.30;;;4.57;;
73382;SDS011;61600;48.126;11.542;2022-10-30T05:10:20;10.05;;;2.95;;
73382;SDS011;61600;48.126;11.542;2022-10-30T05:12:46;14.52;;;3.90;;
73382;SDS011;61600;48.126;11.542;2022-10-30T05:15:12;7.75;;;2.92;;
73382;SDS011;61600;48.126;11.542;2022-10-30T05:17:38;8.23;;;2.90;;
73382;SDS011;61600;48.126;11.542;2022-10-30T05:20:05;9.60;;;2.83;;
73382;SDS011;61600;48.126;11.542;2022-10-30T05:22:31;8.63;;;3.03;;
73382;SDS011;61600;48.126;11.542;2022-10-30T05:24:57;11.43;;;3.08;;
73382;SDS011;61600;48.126;11.542;2022-10-30T05:27:23;11.10;;;2.70;;
73382;SDS011;61600;48.126;11.542;2022-10-30T05:29:49;7.30;;;2.70;;
73382;SDS011;61600;48.126;11.542;2022-10-30T05:32:15;7.50;;;3.00;;
73382;SDS011;61600;48.126;11.542;2022-10-30T05:34:40;9.65;;;2.75;;
73382;SDS011;61600;48.126;11.542;2022-10-30T05:37:06;11.55;;;2.72;;
73382;SDS011;61600;48.126;11.542;2022-10-30T05:39:32;8.43;;;2.15;;
73382;SDS011;61600;48.126;11.542;2022-10-30T05:41:57;12.32;;;2.72;;
73382;SDS011;61600;48.126;11.542;2022-10-30T05:44:23;6.82;;;2.55;;
73382;SDS011;61600;48.126;11.542;2022-10-30T05:46:49;8.55;;;2.58;;
73382;SDS011;61600;48.126;11.542;2022-10-30T05:49:14;9.43;;;2.50;;
73382;SDS011;61600;48.126;11.542;2022-10-30T05:54:07;12.43;;;3.83;;
73382;SDS011;61600;48.126;11.542;2022-10-30T05:56:33;10.70;;;2.97;;
73382;SDS011;61600;48.126;11.542;2022-10-30T05:58:59;5.45;;;2.13;;
73382;SDS011;61600;48.126;11.542;2022-10-30T06:01:24;7.25;;;2.70;;
73382;SDS011;61600;48.126;11.542;2022-10-30T06:03:50;10.60;;;3.00;;
73382;SDS011;61600;48.126;11.542;2022-10-30T06:06:16;9.93;;;2.78;;
73382;SDS011;61600;48.126;11.542;2022-10-30T06:08:42;11.70;;;3.63;;
73382;SDS011;61600;48.126;11.542;2022-10-30T06:11:07;10.80;;;2.47;;
73382;SDS011;61600;48.126;11.542;2022-10-30T06:13:33;7.68;;;2.67;;
73382;SDS011;61600;48.126;11.542;2022-10-30T06:15:59;8.93;;;2.30;;
73382;SDS011;61600;48.126;11.542;2022-10-30T06:18:25;9.32;;;3.28;;
73382;SDS011;61600;48.126;11.542;2022-10-30T06:20:50;9.30;;;2.75;;
73382;SDS011;61600;48.126;11.542;2022-10-30T06:23:18;10.20;;;3.28;;
73382;SDS011;61600;48.126;11.542;2022-10-30T06:25:44;8.93;;;3.22;;
73382;SDS011;61600;48.126;11.542;2022-10-30T06:28:10;11.57;;;3.53;;
73382;SDS011;61600;48.126;11.542;2022-10-30T06:30:38;9.95;;;3.33;;
73382;SDS011;61600;48.126;11.542;2022-10-30T06:33:03;8.63;;;3.53;;
73382;SDS011;61600;48.126;11.542;2022-10-30T06:35:30;18.83;;;4.45;;
73382;SDS011;61600;48.126;11.542;2022-10-30T06:37:56;19.80;;;4.55;;
73382;SDS011;61600;48.126;11.542;2022-10-30T06:40:24;8.13;;;3.20;;
73382;SDS011;61600;48.126;11.542;2022-10-30T06:42:51;12.98;;;3.08;;
73382;SDS011;61600;48.126;11.542;2022-10-30T06:47:44;7.93;;;3.33;;
73382;SDS011;61600;48.126;11.542;2022-10-30T06:50:11;10.57;;;4.18;;
73382;SDS011;61600;48.126;11.542;2022-10-30T06:52:39;13.07;;;3.90;;
73382;SDS011;61600;48.126;11.542;2022-10-30T06:55:05;10.00;;;3.38;;
73382;SDS011;61600;48.126;11.542;2022-10-30T06:57:31;10.98;;;3.80;;
73382;SDS011;61600;48.126;11.542;2022-10-30T06:59:57;10.30;;;2.92;;
73382;SDS011;61600;48.126;11.542;2022-10-30T07:02:23;9.32;;;3.10;;
73382;SDS011;61600;48.126;11.542;2022-10-30T07:04:48;14.27;;;4.35;;
73382;SDS011;61600;48.126;11.542;2022-10-30T07:07:14;12.90;;;3.38;;
73382;SDS011;61600;48.126;11.542;2022-10-30T07:09:41;11.48;;;3.80;;
73382;SDS011;61600;48.126;11.542;2022-10-30T07:12:07;10.82;;;3.58;;
73382;SDS011;61600;48.126;11.542;2022-10-30T07:14:34;13.63;;;3.38;;
73382;SDS011;61600;48.126;11.542;2022-10-30T07:17:00;12.82;;;3.47;;
73382;SDS011;61600;48.126;11.542;2022-10-30T07:19:26;10.00;;;3.08;;
73382;SDS011;61600;48.126;11.542;2022-10-30T07:21:52;11.23;;;3.83;;
73382;SDS011;61600;48.126;11.542;2022-10-30T07:24:17;10.73;;;3.20;;
73382;SDS011;61600;48.126;11.542;2022-10-30T07:26:43;16.08;;;5.00;;
73382;SDS011;61600;48.126;11.542;2022-10-30T07:29:09;10.43;;;4.28;;
73382;SDS011;61600;48.126;11.542;2022-10-30T07:31:35;11.43;;;3.72;;
73382;SDS011;61600;48.126;11.542;2022-10-30T07:34:00;13.32;;;3.50;;
73382;SDS011;61600;48.126;11.542;2022-10-30T07:36:26;9.73;;;2.95;;
73382;SDS011;61600;48.126;11.542;2022-10-30T07:38:52;10.20;;;3.08;;
73382;SDS011;61600;48.126;11.542;2022-10-30T07:41:18;10.57;;;3.47;;
73382;SDS011;61600;48.126;11.542;2022-10-30T07:43:45;9.45;;;3.88;;
73382;SDS011;61600;48.126;11.542;2022-10-30T07:46:12;11.38;;;3.80;;
73382;SDS011;61600;48.126;11.542;2022-10-30T07:48:38;12.05;;;4.10;;
73382;SDS011;61600;48.126;11.542;2022-10-30T07:51:03;10.32;;;3.65;;
73382;SDS011;61600;48.126;11.542;2022-10-30T07:53:29;7.55;;;2.97;;
73382;SDS011;61600;48.126;11.542;2022-10-30T07:55:55;13.95;;;3.28;;
73382;SDS011;61600;48.126;11.542;2022-10-30T07:58:21;14.27;;;3.75;;
73382;SDS011;61600;48.126;11.542;2022-10-30T08:00:47;12.52;;;4.20;;
73382;SDS011;61600;48.126;11.542;2022-10-30T08:03:13;19.73;;;7.55;;
73382;SDS011;61600;48.126;11.542;2022-10-30T08:05:39;21.45;;;8.55;;
73382;SDS011;61600;48.126;11.542;2022-10-30T08:08:05;10.20;;;4.70;;
73382;SDS011;61600;48.126;11.542;2022-10-30T08:10:32;14.85;;;4.28;;
73382;SDS011;61600;48.126;11.542;2022-10-30T08:12:58;15.52;;;6.47;;
73382;SDS011;61600;48.126;11.542;2022-10-30T08:15:24;13.82;;;4.30;;
73382;SDS011;61600;48.126;11.542;2022-10-30T08:17:50;11.80;;;4.22;;
73382;SDS011;61600;48.126;11.542;2022-10-30T08:20:17;9.68;;;3.30;;
73382;SDS011;61600;48.126;11.542;2022-10-30T08:25:14;27.10;;;11.07;;
73382;SDS011;61600;48.126;11.542;2022-10-30T08:30:36;17.20;;;7.30;;
73382;SDS011;61600;48.126;11.542;2022-10-30T08:33:06;34.88;;;15.32;;
73382;SDS011;61600;48.126;11.542;2022-10-30T08:35:35;25.52;;;11.68;;
73382;SDS011;61600;48.126;11.542;2022-10-30T08:38:01;33.72;;;13.82;;
73382;SDS011;61600;48.126;11.542;2022-10-30T08:40:29;12.00;;;5.07;;
73382;SDS011;61600;48.126;11.542;2022-10-30T08:42:56;7.85;;;3.17;;
73382;SDS011;61600;48.126;11.542;2022-10-30T08:45:22;19.50;;;7.15;;
73382;SDS011;61600;48.126;11.542;2022-10-30T08:47:55;39.92;;;20.13;;
73382;SDS011;61600;48.126;11.542;2022-10-30T08:50:25;54.63;;;27.60;;
73382;SDS011;61600;48.126;11.542;2022-10-30T08:52:51;43.92;;;19.90;;
73382;SDS011;61600;48.126;11.542;2022-10-30T08:55:17;30.98;;;14.32;;
73382;SDS011;61600;48.126;11.542;2022-10-30T08:57:43;41.42;;;19.63;;
73382;SDS011;61600;48.126;11.542;2022-10-30T09:00:09;12.85;;;5.07;;
73382;SDS011;61600;48.126;11.542;2022-10-30T09:02:35;13.52;;;6.88;;
73382;SDS011;61600;48.126;11.542;2022-10-30T09:05:05;21.35;;;8.38;;
73382;SDS011;61600;48.126;11.542;2022-10-30T09:07:32;19.10;;;6.30;;
73382;SDS011;61600;48.126;11.542;2022-10-30T09:09:58;13.68;;;3.60;;
73382;SDS011;61600;48.126;11.542;2022-10-30T09:12:24;16.17;;;5.38;;
73382;SDS011;61600;48.126;11.542;2022-10-30T09:14:52;35.70;;;16.88;;
73382;SDS011;61600;48.126;11.542;2022-10-30T09:17:18;47.40;;;21.40;;
73382;SDS011;61600;48.126;11.542;2022-10-30T09:19:44;34.05;;;13.57;;
73382;SDS011;61600;48.126;11.542;2022-10-30T09:22:10;15.52;;;6.20;;
73382;SDS011;61600;48.126;11.542;2022-10-30T09:24:36;8.38;;;2.97;;
73382;SDS011;61600;48.126;11.542;2022-10-30T09:27:04;15.57;;;3.72;;
73382;SDS011;61600;48.126;11.542;2022-10-30T09:29:34;6.95;;;2.40;;
73382;SDS011;61600;48.126;11.542;2022-10-30T09:32:00;25.85;;;12.07;;
73382;SDS011;61600;48.126;11.542;2022-10-30T09:34:29;19.80;;;8.13;;
73382;SDS011;61600;48.126;11.542;2022-10-30T09:36:55;16.95;;;4.82;;
73382;SDS011;61600;48.126;11.542;2022-10-30T09:39:21;23.00;;;12.07;;
73382;SDS011;61600;48.126;11.542;2022-10-30T09:58:29;11.57;;;3.35;;
73382;SDS011;61600;48.126;11.542;2022-10-30T10:06:22;23.05;;;9.23;;
73382;SDS011;61600;48.126;11.542;2022-10-30T10:08:50;23.08;;;9.50;;
73382;SDS011;61600;48.126;11.542;2022-10-30T10:11:25;25.10;;;11.05;;
73382;SDS011;61600;48.126;11.542;2022-10-30T10:13:56;28.35;;;13.93;;
73382;SDS011;61600;48.126;11.542;2022-10-30T10:16:39;22.02;;;8.05;;
73382;SDS011;61600;48.126;11.542;2022-10-30T10:21:44;14.73;;;5.63;;
73382;SDS011;61600;48.126;11.542;2022-10-30T10:24:50;13.63;;;5.07;;
73382;SDS011;61600;48.126;11.542;2022-10-30T10:30:10;15.77;;;3.58;;
73382;SDS011;61600;48.126;11.542;2022-10-30T10:32:44;6.95;;;2.70;;
73382;SDS011;61600;48.126;11.542;2022-10-30T10:40:53;8.00;;;2.85;;
73382;SDS011;61600;48.126;11.542;2022-10-30T10:52:11;8.80;;;2.70;;
73382;SDS011;61600;48.126;11.542;2022-10-30T10:54:42;9.75;;;3.20;;
73382;SDS011;61600;48.126;11.542;2022-10-30T10:57:15;8.60;;;2.63;;
73382;SDS011;61600;48.126;11.542;2022-10-30T10:59:51;13.40;;;3.00;;
73382;SDS011;61600;48.126;11.542;2022-10-30T11:05:23;9.07;;;2.75;;
73382;SDS011;61600;48.126;11.542;2022-10-30T11:08:10;9.23;;;2.25;;
73382;SDS011;61600;48.126;11.542;2022-10-30T11:10:55;8.35;;;2.30;;
73382;SDS011;61600;48.126;11.542;2022-10-30T11:13:26;8.63;;;2.10;;
73382;SDS011;61600;48.126;11.542;2022-10-30T11:18:51;10.63;;;3.20;;
73382;SDS011;61600;48.126;11.542;2022-10-30T11:21:32;14.48;;;2.90;;
73382;SDS011;61600;48.126;11.542;2022-10-30T11:24:02;10.75;;;3.00;;
73382;SDS011;61600;48.126;11.542;2022-10-30T11:26:30;8.18;;;2.58;;
73382;SDS011;61600;48.126;11.542;2022-10-30T11:33:52;12.93;;;2.90;;
73382;SDS011;61600;48.126;11.542;2022-10-30T11:36:21;11.93;;;2.63;;
73382;SDS011;61600;48.126;11.542;2022-10-30T11:38:49;9.27;;;2.42;;
73382;SDS011;61600;48.126;11.542;2022-10-30T11:41:15;9.20;;;2.30;;
73382;SDS011;61600;48.126;11.542;2022-10-30T11:43:42;15.93;;;3.55;;
73382;SDS011;61600;48.126;11.542;2022-10-30T11:46:09;11.60;;;2.50;;
73382;SDS011;61600;48.126;11.542;2022-10-30T11:48:45;13.43;;;2.47;;
73382;SDS011;61600;48.126;11.542;2022-10-30T11:51:28;11.80;;;3.47;;
73382;SDS011;61600;48.126;11.542;2022-10-30T11:54:01;10.82;;;2.40;;
73382;SDS011;61600;48.126;11.542;2022-10-30T11:56:29;10.73;;;2.40;;
73382;SDS011;61600;48.126;11.542;2022-10-30T11:58:58;10.00;;;2.60;;
73382;SDS011;61600;48.126;11.542;2022-10-30T12:01:27;8.13;;;2.50;;
73382;SDS011;61600;48.126;11.542;2022-10-30T12:03:54;14.63;;;2.60;;
73382;SDS011;61600;48.126;11.542;2022-10-30T12:06:36;9.15;;;2.88;;
73382;SDS011;61600;48.126;11.542;2022-10-30T12:11:40;10.93;;;2.80;;
73382;SDS011;61600;48.126;11.542;2022-10-30T12:14:15;9.75;;;2.92;;
73382;SDS011;61600;48.126;11.542;2022-10-30T12:16:44;11.65;;;2.72;;
73382;SDS011;61600;48.126;11.542;2022-10-30T12:19:12;12.77;;;2.60;;
73382;SDS011;61600;48.126;11.542;2022-10-30T12:21:47;10.43;;;2.55;;
73382;SDS011;61600;48.126;11.542;2022-10-30T12:24:16;10.38;;;2.45;;
73382;SDS011;61600;48.126;11.542;2022-10-30T12:26:52;11.90;;;2.75;;
73382;SDS011;61600;48.126;11.542;2022-10-30T12:29:20;10.73;;;2.92;;
73382;SDS011;61600;48.126;11.542;2022-10-30T12:34:22;9.18;;;2.72;;
73382;SDS011;61600;48.126;11.542;2022-10-30T12:36:53;7.97;;;2.83;;
73382;SDS011;61600;48.126;11.542;2022-10-30T12:42:06;8.52;;;2.65;;
73382;SDS011;61600;48.126;11.542;2022-10-30T12:47:10;11.07;;;2.85;;
73382;SDS011;61600;48.126;11.542;2022-10-30T12:52:40;14.05;;;3.30;;
73382;SDS011;61600;48.126;11.542;2022-10-30T12:57:45;8.43;;;2.92;;
73382;SDS011;61600;48.126;11.542;2022-10-30T13:05:45;9.20;;;2.88;;
73382;SDS011;61600;48.126;11.542;2022-10-30T13:08:29;7.72;;;2.65;;
73382;SDS011;61600;48.126;11.542;2022-10-30T13:13:39;9.07;;;2.50;;
73382;SDS011;61600;48.126;11.542;2022-10-30T13:16:12;10.45;;;2.72;;
73382;SDS011;61600;48.126;11.542;2022-10-30T13:18:41;9.57;;;3.22;;
73382;SDS011;61600;48.126;11.542;2022-10-30T13:40:42;13.32;;;3.20;;
73382;SDS011;61600;48.126;11.542;2022-10-30T13:42:56;11.23;;;3.28;;
73382;SDS011;61600;48.126;11.542;2022-10-30T13:48:28;19.13;;;9.93;;
73382;SDS011;61600;48.126;11.542;2022-10-30T13:54:13;8.38;;;2.70;;
73382;SDS011;61600;48.126;11.542;2022-10-30T13:56:48;10.60;;;2.72;;
73382;SDS011;61600;48.126;11.542;2022-10-30T14:02:15;11.25;;;2.72;;
73382;SDS011;61600;48.126;11.542;2022-10-30T14:04:52;10.65;;;2.88;;
73382;SDS011;61600;48.126;11.542;2022-10-30T14:07:44;16.50;;;2.85;;
73382;SDS011;61600;48.126;11.542;2022-10-30T14:13:14;15.32;;;3.30;;
73382;SDS011;61600;48.126;11.542;2022-10-30T14:16:02;10.52;;;3.28;;
73382;SDS011;61600;48.126;11.542;2022-10-30T14:19:06;10.20;;;2.75;;
73382;SDS011;61600;48.126;11.542;2022-10-30T14:24:33;11.68;;;2.55;;
73382;SDS011;61600;48.126;11.542;2022-10-30T14:29:44;8.85;;;2.60;;
73382;SDS011;61600;48.126;11.542;2022-10-30T14:34:44;12.10;;;2.83;;
73382;SDS011;61600;48.126;11.542;2022-10-30T14:39:47;9.77;;;2.58;;
73382;SDS011;61600;48.126;11.542;2022-10-30T14:42:19;11.90;;;2.80;;
73382;SDS011;61600;48.126;11.542;2022-10-30T14:45:17;11.25;;;2.90;;
73382;SDS011;61600;48.126;11.542;2022-10-30T14:58:39;10.25;;;3.22;;
73382;SDS011;61600;48.126;11.542;2022-10-30T15:01:18;9.27;;;2.90;;
73382;SDS011;61600;48.126;11.542;2022-10-30T15:06:28;9.73;;;2.53;;
73382;SDS011;61600;48.126;11.542;2022-10-30T15:09:06;11.20;;;2.90;;
73382;SDS011;61600;48.126;11.542;2022-10-30T15:16:51;17.13;;;3.63;;
73382;SDS011;61600;48.126;11.542;2022-10-30T15:19:16;10.25;;;3.28;;
73382;SDS011;61600;48.126;11.542;2022-10-30T15:21:44;12.70;;;3.17;;
73382;SDS011;61600;48.126;11.542;2022-10-30T15:24:15;12.60;;;4.35;;
73382;SDS011;61600;48.126;11.542;2022-10-30T15:26:51;9.27;;;3.47;;
73382;SDS011;61600;48.126;11.542;2022-10-30T15:29:23;13.40;;;3.38;;
73382;SDS011;61600;48.126;11.542;2022-10-30T15:31:58;10.80;;;3.20;;
73382;SDS011;61600;48.126;11.542;2022-10-30T15:34:30;10.20;;;3.25;;
73382;SDS011;61600;48.126;11.542;2022-10-30T15:36:57;13.80;;;4.18;;
73382;SDS011;61600;48.126;11.542;2022-10-30T15:39:23;11.75;;;3.08;;
73382;SDS011;61600;48.126;11.542;2022-10-30T15:41:50;11.95;;;3.03;;
73382;SDS011;61600;48.126;11.542;2022-10-30T15:44:19;13.85;;;3.78;;
73382;SDS011;61600;48.126;11.542;2022-10-30T15:46:48;16.75;;;3.90;;
73382;SDS011;61600;48.126;11.542;2022-10-30T15:49:34;13.18;;;3.85;;
73382;SDS011;61600;48.126;11.542;2022-10-30T15:52:03;17.73;;;3.88;;
73382;SDS011;61600;48.126;11.542;2022-10-30T15:54:59;10.80;;;3.47;;
73382;SDS011;61600;48.126;11.542;2022-10-30T15:57:40;16.98;;;3.50;;
73382;SDS011;61600;48.126;11.542;2022-10-30T16:00:19;12.65;;;3.33;;
73382;SDS011;61600;48.126;11.542;2022-10-30T16:08:57;11.65;;;3.45;;
73382;SDS011;61600;48.126;11.542;2022-10-30T16:11:23;12.95;;;3.60;;
73382;SDS011;61600;48.126;11.542;2022-10-30T16:13:51;17.65;;;3.58;;
73382;SDS011;61600;48.126;11.542;2022-10-30T16:16:25;9.25;;;3.00;;
73382;SDS011;61600;48.126;11.542;2022-10-30T16:18:56;13.15;;;4.30;;
73382;SDS011;61600;48.126;11.542;2022-10-30T16:21:24;15.68;;;4.07;;
73382;SDS011;61600;48.126;11.542;2022-10-30T16:23:58;11.32;;;3.45;;
73382;SDS011;61600;48.126;11.542;2022-10-30T16:26:34;9.48;;;3.70;;
73382;SDS011;61600;48.126;11.542;2022-10-30T16:29:06;8.32;;;3.70;;
73382;SDS011;61600;48.126;11.542;2022-10-30T16:31:43;13.70;;;3.92;;
73382;SDS011;61600;48.126;11.542;2022-10-30T16:36:59;12.80;;;4.55;;
73382;SDS011;61600;48.126;11.542;2022-10-30T16:39:29;11.73;;;3.90;;
73382;SDS011;61600;48.126;11.542;2022-10-30T16:41:57;15.18;;;3.75;;
73382;SDS011;61600;48.126;11.542;2022-10-30T16:44:25;14.13;;;3.83;;
73382;SDS011;61600;48.126;11.542;2022-10-30T16:46:52;14.50;;;4.03;;
73382;SDS011;61600;48.126;11.542;2022-10-30T16:49:22;12.88;;;4.93;;
73382;SDS011;61600;48.126;11.542;2022-10-30T16:51:55;16.63;;;4.75;;
73382;SDS011;61600;48.126;11.542;2022-10-30T16:54:28;13.00;;;3.83;;
73382;SDS011;61600;48.126;11.542;2022-10-30T16:57:01;13.27;;;4.15;;
73382;SDS011;61600;48.126;11.542;2022-10-30T16:59:34;9.45;;;3.70;;
73382;SDS011;61600;48.126;11.542;2022-10-30T17:02:14;19.02;;;4.75;;
73382;SDS011;61600;48.126;11.542;2022-10-30T17:04:46;17.98;;;4.88;;
73382;SDS011;61600;48.126;11.542;2022-10-30T17:07:16;18.20;;;5.45;;
73382;SDS011;61600;48.126;11.542;2022-10-30T17:09:43;20.70;;;5.25;;
73382;SDS011;61600;48.126;11.542;2022-10-30T17:12:19;17.08;;;6.13;;
73382;SDS011;61600;48.126;11.542;2022-10-30T17:19:56;17.58;;;5.22;;
73382;SDS011;61600;48.126;11.542;2022-10-30T17:22:26;18.92;;;5.45;;
73382;SDS011;61600;48.126;11.542;2022-10-30T17:24:52;16.00;;;5.30;;
73382;SDS011;61600;48.126;11.542;2022-10-30T17:29:53;24.00;;;6.55;;
73382;SDS011;61600;48.126;11.542;2022-10-30T17:32:26;26.67;;;6.43;;
73382;SDS011;61600;48.126;11.542;2022-10-30T17:35:11;15.18;;;5.93;;
73382;SDS011;61600;48.126;11.542;2022-10-30T17:37:42;21.60;;;6.03;;
73382;SDS011;61600;48.126;11.542;2022-10-30T17:40:08;15.05;;;5.95;;
73382;SDS011;61600;48.126;11.542;2022-10-30T17:42:35;16.25;;;6.10;;
73382;SDS011;61600;48.126;11.542;2022-10-30T17:45:00;21.08;;;6.60;;
73382;SDS011;61600;48.126;11.542;2022-10-30T17:47:26;18.17;;;6.05;;
73382;SDS011;61600;48.126;11.542;2022-10-30T17:52:18;15.80;;;6.15;;
73382;SDS011;61600;48.126;11.542;2022-10-30T17:54:45;18.10;;;5.82;;
73382;SDS011;61600;48.126;11.542;2022-10-30T17:57:12;22.77;;;6.03;;
73382;SDS011;61600;48.126;11.542;2022-10-30T17:59:39;16.67;;;6.22;;
73382;SDS011;61600;48.126;11.542;2022-10-30T18:02:12;11.88;;;6.00;;
73382;SDS011;61600;48.126;11.542;2022-10-30T18:04:40;27.50;;;9.70;;
73382;SDS011;61600;48.126;11.542;2022-10-30T18:09:33;14.98;;;6.13;;
73382;SDS011;61600;48.126;11.542;2022-10-30T18:11:59;18.50;;;6.63;;
73382;SDS011;61600;48.126;11.542;2022-10-30T18:14:25;21.90;;;8.18;;
73382;SDS011;61600;48.126;11.542;2022-10-30T18:16:51;15.90;;;6.75;;